sensor_id;sensor_type;location;lat;lon;timestamp;temperature;humidity
44863;DHT22;30597;49.628;10.850;2023-05-10T00:02:24;24.00;54.60
44863;DHT22;30597;49.628;10.850;2023-05-10T00:04:50;24.10;54.20
44863;DHT22;30597;49.628;10.850;2023-05-10T00:07:15;24.10;54.20
44863;DHT22;30597;49.628;10.850;2023-05-10T00:09:43;24.10;54.30
44863;DHT22;30597;49.628;10.850;2023-05-10T00:12:08;24.10;54.30
44863;DHT22;30597;49.628;10.850;2023-05-10T00:14:34;24.10;54.20
44863;DHT22;30597;49.628;10.850;2023-05-10T00:17:00;24.10;54.10
44863;DHT22;30597;49.628;10.850;2023-05-10T00:19:25;24.10;54.20
44863;DHT22;30597;49.628;10.850;2023-05-10T00:21:51;24.10;54.20
44863;DHT22;30597;49.628;10.850;2023-05-10T00:24:17;24.10;54.30
44863;DHT22;30597;49.628;10.850;2023-05-10T00:26:43;24.10;54.20
44863;DHT22;30597;49.628;10.850;2023-05-10T00:29:08;24.10;54.20
44863;DHT22;30597;49.628;10.850;2023-05-10T00:31:34;24.20;54.30
44863;DHT22;30597;49.628;10.850;2023-05-10T00:33:59;24.10;54.20
44863;DHT22;30597;49.628;10.850;2023-05-10T00:36:25;24.10;54.30
44863;DHT22;30597;49.628;10.850;2023-05-10T00:38:51;24.20;54.40
44863;DHT22;30597;49.628;10.850;2023-05-10T00:41:16;24.00;54.50
44863;DHT22;30597;49.628;10.850;2023-05-10T00:43:42;24.00;54.60
44863;DHT22;30597;49.628;10.850;2023-05-10T00:46:08;24.00;55.30
44863;DHT22;30597;49.628;10.850;2023-05-10T00:48:33;23.90;54.60
44863;DHT22;30597;49.628;10.850;2023-05-10T00:51:01;23.90;54.70
44863;DHT22;30597;49.628;10.850;2023-05-10T00:53:27;24.00;54.60
44863;DHT22;30597;49.628;10.850;2023-05-10T00:55:52;23.90;54.50
44863;DHT22;30597;49.628;10.850;2023-05-10T00:58:18;24.00;54.50
44863;DHT22;30597;49.628;10.850;2023-05-10T01:00:46;24.00;54.50
44863;DHT22;30597;49.628;10.850;2023-05-10T01:03:12;24.00;54.50
44863;DHT22;30597;49.628;10.850;2023-05-10T01:05:38;24.00;54.90
44863;DHT22;30597;49.628;10.850;2023-05-10T01:08:03;24.00;54.70
44863;DHT22;30597;49.628;10.850;2023-05-10T01:10:30;24.10;54.70
44863;DHT22;30597;49.628;10.850;2023-05-10T01:12:58;24.00;54.80
44863;DHT22;30597;49.628;10.850;2023-05-10T01:15:24;24.00;54.80
44863;DHT22;30597;49.628;10.850;2023-05-10T01:17:50;23.90;54.60
44863;DHT22;30597;49.628;10.850;2023-05-10T01:20:16;23.90;54.60
44863;DHT22;30597;49.628;10.850;2023-05-10T01:23:15;24.00;54.60
44863;DHT22;30597;49.628;10.850;2023-05-10T01:34:35;23.90;54.90
44863;DHT22;30597;49.628;10.850;2023-05-10T01:37:16;23.90;54.90
44863;DHT22;30597;49.628;10.850;2023-05-10T01:39:55;23.90;54.90
44863;DHT22;30597;49.628;10.850;2023-05-10T01:42:26;23.90;54.90
44863;DHT22;30597;49.628;10.850;2023-05-10T01:45:13;23.90;54.90
44863;DHT22;30597;49.628;10.850;2023-05-10T01:48:05;23.90;55.00
44863;DHT22;30597;49.628;10.850;2023-05-10T01:50:32;23.90;54.80
44863;DHT22;30597;49.628;10.850;2023-05-10T01:53:01;23.90;54.70
44863;DHT22;30597;49.628;10.850;2023-05-10T01:55:30;23.90;54.70
44863;DHT22;30597;49.628;10.850;2023-05-10T01:58:04;23.90;55.00
44863;DHT22;30597;49.628;10.850;2023-05-10T02:00:32;23.90;55.10
44863;DHT22;30597;49.628;10.850;2023-05-10T02:03:00;23.80;55.00
44863;DHT22;30597;49.628;10.850;2023-05-10T02:05:29;23.90;54.90
44863;DHT22;30597;49.628;10.850;2023-05-10T02:07:56;23.90;55.00
44863;DHT22;30597;49.628;10.850;2023-05-10T02:10:23;23.90;55.10
44863;DHT22;30597;49.628;10.850;2023-05-10T02:12:50;23.90;55.00
44863;DHT22;30597;49.628;10.850;2023-05-10T02:15:19;23.90;55.10
44863;DHT22;30597;49.628;10.850;2023-05-10T02:17:47;23.90;55.10
44863;DHT22;30597;49.628;10.850;2023-05-10T02:20:14;23.90;55.00
44863;DHT22;30597;49.628;10.850;2023-05-10T02:22:41;23.90;55.00
44863;DHT22;30597;49.628;10.850;2023-05-10T02:25:08;23.90;55.20
44863;DHT22;30597;49.628;10.850;2023-05-10T02:27:36;23.90;55.10
44863;DHT22;30597;49.628;10.850;2023-05-10T02:30:02;23.90;55.00
44863;DHT22;30597;49.628;10.850;2023-05-10T02:32:30;23.90;54.90
44863;DHT22;30597;49.628;10.850;2023-05-10T02:34:55;23.90;54.80
44863;DHT22;30597;49.628;10.850;2023-05-10T02:37:22;23.90;54.90
44863;DHT22;30597;49.628;10.850;2023-05-10T02:39:50;23.90;55.10
44863;DHT22;30597;49.628;10.850;2023-05-10T02:42:19;23.90;54.90
44863;DHT22;30597;49.628;10.850;2023-05-10T02:44:48;23.90;55.00
44863;DHT22;30597;49.628;10.850;2023-05-10T02:47:14;23.90;54.90
44863;DHT22;30597;49.628;10.850;2023-05-10T02:49:40;23.80;54.80
44863;DHT22;30597;49.628;10.850;2023-05-10T02:52:06;23.90;55.00
44863;DHT22;30597;49.628;10.850;2023-05-10T02:54:39;23.80;55.00
44863;DHT22;30597;49.628;10.850;2023-05-10T02:57:07;23.70;55.00
44863;DHT22;30597;49.628;10.850;2023-05-10T02:59:34;23.80;55.10
44863;DHT22;30597;49.628;10.850;2023-05-10T03:02:00;23.80;55.00
44863;DHT22;30597;49.628;10.850;2023-05-10T03:04:27;23.70;55.00
44863;DHT22;30597;49.628;10.850;2023-05-10T03:06:52;23.70;55.10
44863;DHT22;30597;49.628;10.850;2023-05-10T03:09:18;23.70;55.00
44863;DHT22;30597;49.628;10.850;2023-05-10T03:12:10;23.80;55.20
44863;DHT22;30597;49.628;10.850;2023-05-10T03:14:59;23.70;55.80
44863;DHT22;30597;49.628;10.850;2023-05-10T03:17:33;23.70;55.20
44863;DHT22;30597;49.628;10.850;2023-05-10T03:20:09;23.70;55.20
44863;DHT22;30597;49.628;10.850;2023-05-10T03:22:49;23.60;55.20
44863;DHT22;30597;49.628;10.850;2023-05-10T03:25:16;23.60;55.20
44863;DHT22;30597;49.628;10.850;2023-05-10T03:27:44;23.60;55.40
44863;DHT22;30597;49.628;10.850;2023-05-10T03:30:12;23.50;56.10
44863;DHT22;30597;49.628;10.850;2023-05-10T03:32:38;23.60;55.50
44863;DHT22;30597;49.628;10.850;2023-05-10T03:35:11;23.70;55.60
44863;DHT22;30597;49.628;10.850;2023-05-10T03:37:37;23.60;55.50
44863;DHT22;30597;49.628;10.850;2023-05-10T03:40:03;23.70;55.50
44863;DHT22;30597;49.628;10.850;2023-05-10T03:42:29;23.60;55.40
44863;DHT22;30597;49.628;10.850;2023-05-10T03:44:55;23.50;55.40
44863;DHT22;30597;49.628;10.850;2023-05-10T03:47:20;23.60;55.50
44863;DHT22;30597;49.628;10.850;2023-05-10T03:49:46;23.60;56.20
44863;DHT22;30597;49.628;10.850;2023-05-10T03:52:11;23.50;55.40
44863;DHT22;30597;49.628;10.850;2023-05-10T03:54:37;23.50;55.50
44863;DHT22;30597;49.628;10.850;2023-05-10T03:57:03;23.60;55.40
44863;DHT22;30597;49.628;10.850;2023-05-10T03:59:29;23.50;55.50
44863;DHT22;30597;49.628;10.850;2023-05-10T04:01:55;23.60;55.70
44863;DHT22;30597;49.628;10.850;2023-05-10T04:04:21;23.60;55.60
44863;DHT22;30597;49.628;10.850;2023-05-10T04:06:47;23.50;55.50
44863;DHT22;30597;49.628;10.850;2023-05-10T04:09:12;23.60;55.50
44863;DHT22;30597;49.628;10.850;2023-05-10T04:11:38;23.50;55.50
44863;DHT22;30597;49.628;10.850;2023-05-10T04:14:04;23.50;55.50
44863;DHT22;30597;49.628;10.850;2023-05-10T04:16:30;23.40;55.50
44863;DHT22;30597;49.628;10.850;2023-05-10T04:18:55;23.40;55.50
44863;DHT22;30597;49.628;10.850;2023-05-10T04:21:21;23.40;55.60
44863;DHT22;30597;49.628;10.850;2023-05-10T04:23:46;23.40;55.60
44863;DHT22;30597;49.628;10.850;2023-05-10T04:26:12;23.30;55.50
44863;DHT22;30597;49.628;10.850;2023-05-10T04:28:38;23.40;55.60
44863;DHT22;30597;49.628;10.850;2023-05-10T04:31:08;23.30;55.50
44863;DHT22;30597;49.628;10.850;2023-05-10T04:33:34;23.40;55.70
44863;DHT22;30597;49.628;10.850;2023-05-10T04:36:01;23.40;55.70
44863;DHT22;30597;49.628;10.850;2023-05-10T04:38:28;23.40;55.80
44863;DHT22;30597;49.628;10.850;2023-05-10T04:40:54;23.40;55.90
44863;DHT22;30597;49.628;10.850;2023-05-10T04:43:20;23.30;55.70
44863;DHT22;30597;49.628;10.850;2023-05-10T04:45:45;23.30;55.70
44863;DHT22;30597;49.628;10.850;2023-05-10T04:48:11;23.30;56.00
44863;DHT22;30597;49.628;10.850;2023-05-10T04:50:37;23.30;55.70
44863;DHT22;30597;49.628;10.850;2023-05-10T04:53:04;23.30;55.70
44863;DHT22;30597;49.628;10.850;2023-05-10T04:55:29;23.30;56.10
44863;DHT22;30597;49.628;10.850;2023-05-10T04:57:55;23.30;55.90
44863;DHT22;30597;49.628;10.850;2023-05-10T05:00:22;23.30;56.00
44863;DHT22;30597;49.628;10.850;2023-05-10T05:02:48;23.30;56.00
44863;DHT22;30597;49.628;10.850;2023-05-10T05:05:14;23.30;55.90
44863;DHT22;30597;49.628;10.850;2023-05-10T05:07:39;23.30;55.90
44863;DHT22;30597;49.628;10.850;2023-05-10T05:10:08;23.30;56.00
44863;DHT22;30597;49.628;10.850;2023-05-10T05:12:34;23.30;56.00
44863;DHT22;30597;49.628;10.850;2023-05-10T05:15:01;23.30;56.00
44863;DHT22;30597;49.628;10.850;2023-05-10T05:17:27;23.30;56.20
44863;DHT22;30597;49.628;10.850;2023-05-10T05:19:55;23.30;56.20
44863;DHT22;30597;49.628;10.850;2023-05-10T05:22:21;23.40;56.10
44863;DHT22;30597;49.628;10.850;2023-05-10T05:24:53;23.30;56.10
44863;DHT22;30597;49.628;10.850;2023-05-10T05:27:19;23.30;56.10
44863;DHT22;30597;49.628;10.850;2023-05-10T05:29:46;23.30;56.10
44863;DHT22;30597;49.628;10.850;2023-05-10T05:32:11;23.30;56.00
44863;DHT22;30597;49.628;10.850;2023-05-10T05:34:37;23.30;56.10
44863;DHT22;30597;49.628;10.850;2023-05-10T05:37:03;23.30;56.10
44863;DHT22;30597;49.628;10.850;2023-05-10T05:39:28;23.30;56.10
44863;DHT22;30597;49.628;10.850;2023-05-10T05:41:54;23.30;56.20
44863;DHT22;30597;49.628;10.850;2023-05-10T05:44:20;23.30;56.20
44863;DHT22;30597;49.628;10.850;2023-05-10T05:46:45;23.30;56.20
44863;DHT22;30597;49.628;10.850;2023-05-10T05:49:11;23.30;55.90
44863;DHT22;30597;49.628;10.850;2023-05-10T05:51:37;23.40;55.20
44863;DHT22;30597;49.628;10.850;2023-05-10T05:54:03;23.40;54.20
44863;DHT22;30597;49.628;10.850;2023-05-10T05:56:29;23.30;54.00
44863;DHT22;30597;49.628;10.850;2023-05-10T05:58:55;23.40;54.30
44863;DHT22;30597;49.628;10.850;2023-05-10T06:01:21;23.40;54.40
44863;DHT22;30597;49.628;10.850;2023-05-10T06:03:46;23.30;54.30
44863;DHT22;30597;49.628;10.850;2023-05-10T06:06:12;23.30;54.40
44863;DHT22;30597;49.628;10.850;2023-05-10T06:08:38;23.30;54.20
44863;DHT22;30597;49.628;10.850;2023-05-10T06:11:03;23.40;54.30
44863;DHT22;30597;49.628;10.850;2023-05-10T06:13:29;23.40;54.40
44863;DHT22;30597;49.628;10.850;2023-05-10T06:15:58;23.40;54.30
44863;DHT22;30597;49.628;10.850;2023-05-10T06:18:24;23.50;54.50
44863;DHT22;30597;49.628;10.850;2023-05-10T06:20:50;23.50;54.40
44863;DHT22;30597;49.628;10.850;2023-05-10T06:23:16;23.60;54.50
44863;DHT22;30597;49.628;10.850;2023-05-10T06:25:42;23.60;54.40
44863;DHT22;30597;49.628;10.850;2023-05-10T06:28:08;23.60;54.30
44863;DHT22;30597;49.628;10.850;2023-05-10T06:30:35;23.80;54.40
44863;DHT22;30597;49.628;10.850;2023-05-10T06:33:00;23.70;54.50
44863;DHT22;30597;49.628;10.850;2023-05-10T06:35:26;23.70;54.40
44863;DHT22;30597;49.628;10.850;2023-05-10T06:37:51;23.70;54.50
44863;DHT22;30597;49.628;10.850;2023-05-10T06:40:17;23.70;54.30
44863;DHT22;30597;49.628;10.850;2023-05-10T06:42:43;23.70;54.50
44863;DHT22;30597;49.628;10.850;2023-05-10T06:45:10;23.80;54.40
44863;DHT22;30597;49.628;10.850;2023-05-10T06:47:36;23.80;54.30
44863;DHT22;30597;49.628;10.850;2023-05-10T06:50:02;23.80;54.60
44863;DHT22;30597;49.628;10.850;2023-05-10T06:52:28;23.80;54.40
44863;DHT22;30597;49.628;10.850;2023-05-10T06:54:54;23.80;54.30
44863;DHT22;30597;49.628;10.850;2023-05-10T06:57:19;23.90;54.50
44863;DHT22;30597;49.628;10.850;2023-05-10T06:59:45;23.90;54.40
44863;DHT22;30597;49.628;10.850;2023-05-10T07:02:11;23.90;54.30
44863;DHT22;30597;49.628;10.850;2023-05-10T07:04:36;23.90;54.30
44863;DHT22;30597;49.628;10.850;2023-05-10T07:07:02;23.90;54.30
44863;DHT22;30597;49.628;10.850;2023-05-10T07:09:28;24.00;54.30
44863;DHT22;30597;49.628;10.850;2023-05-10T07:11:53;24.00;54.30
44863;DHT22;30597;49.628;10.850;2023-05-10T07:14:19;24.00;54.10
44863;DHT22;30597;49.628;10.850;2023-05-10T07:16:44;24.00;54.20
44863;DHT22;30597;49.628;10.850;2023-05-10T07:19:10;24.00;54.10
44863;DHT22;30597;49.628;10.850;2023-05-10T07:21:36;24.00;54.20
44863;DHT22;30597;49.628;10.850;2023-05-10T07:24:01;24.10;54.30
44863;DHT22;30597;49.628;10.850;2023-05-10T07:26:27;24.10;53.90
44863;DHT22;30597;49.628;10.850;2023-05-10T07:28:52;24.20;54.20
44863;DHT22;30597;49.628;10.850;2023-05-10T07:31:18;24.10;54.00
44863;DHT22;30597;49.628;10.850;2023-05-10T07:33:43;24.10;54.10
44863;DHT22;30597;49.628;10.850;2023-05-10T07:36:09;24.10;54.10
44863;DHT22;30597;49.628;10.850;2023-05-10T07:38:35;24.20;54.10
44863;DHT22;30597;49.628;10.850;2023-05-10T07:41:00;24.10;54.00
44863;DHT22;30597;49.628;10.850;2023-05-10T07:43:26;24.30;54.20
44863;DHT22;30597;49.628;10.850;2023-05-10T07:45:51;24.20;54.20
44863;DHT22;30597;49.628;10.850;2023-05-10T07:48:17;24.10;54.00
44863;DHT22;30597;49.628;10.850;2023-05-10T07:50:42;24.10;54.00
44863;DHT22;30597;49.628;10.850;2023-05-10T07:53:09;24.10;53.90
44863;DHT22;30597;49.628;10.850;2023-05-10T07:55:34;24.30;54.30
44863;DHT22;30597;49.628;10.850;2023-05-10T07:58:00;24.20;54.20
44863;DHT22;30597;49.628;10.850;2023-05-10T08:00:26;24.30;54.20
44863;DHT22;30597;49.628;10.850;2023-05-10T08:02:52;24.20;54.30
44863;DHT22;30597;49.628;10.850;2023-05-10T08:05:18;24.20;54.30
44863;DHT22;30597;49.628;10.850;2023-05-10T08:07:43;24.20;53.80
44863;DHT22;30597;49.628;10.850;2023-05-10T08:10:09;24.20;54.30
44863;DHT22;30597;49.628;10.850;2023-05-10T08:12:36;24.20;54.20
44863;DHT22;30597;49.628;10.850;2023-05-10T08:15:03;24.20;54.20
44863;DHT22;30597;49.628;10.850;2023-05-10T08:17:29;24.20;54.20
44863;DHT22;30597;49.628;10.850;2023-05-10T08:19:54;24.30;54.10
44863;DHT22;30597;49.628;10.850;2023-05-10T08:22:20;24.30;54.10
44863;DHT22;30597;49.628;10.850;2023-05-10T08:24:45;24.40;54.00
44863;DHT22;30597;49.628;10.850;2023-05-10T08:27:11;24.30;53.80
44863;DHT22;30597;49.628;10.850;2023-05-10T08:29:37;24.20;53.70
44863;DHT22;30597;49.628;10.850;2023-05-10T08:32:03;24.30;54.00
44863;DHT22;30597;49.628;10.850;2023-05-10T08:34:28;24.30;53.90
44863;DHT22;30597;49.628;10.850;2023-05-10T08:36:56;24.20;54.00
44863;DHT22;30597;49.628;10.850;2023-05-10T08:39:22;24.20;54.10
44863;DHT22;30597;49.628;10.850;2023-05-10T08:41:51;24.20;54.00
44863;DHT22;30597;49.628;10.850;2023-05-10T08:44:19;24.20;54.10
44863;DHT22;30597;49.628;10.850;2023-05-10T08:46:46;24.30;54.20
44863;DHT22;30597;49.628;10.850;2023-05-10T08:49:17;24.30;53.60
44863;DHT22;30597;49.628;10.850;2023-05-10T08:51:49;24.30;53.50
44863;DHT22;30597;49.628;10.850;2023-05-10T08:54:15;24.40;53.60
44863;DHT22;30597;49.628;10.850;2023-05-10T08:56:41;24.30;53.20
44863;DHT22;30597;49.628;10.850;2023-05-10T08:59:07;24.40;53.20
44863;DHT22;30597;49.628;10.850;2023-05-10T09:01:34;24.40;53.20
44863;DHT22;30597;49.628;10.850;2023-05-10T09:04:00;24.30;53.10
44863;DHT22;30597;49.628;10.850;2023-05-10T09:06:26;24.30;53.00
44863;DHT22;30597;49.628;10.850;2023-05-10T09:08:52;24.30;53.00
44863;DHT22;30597;49.628;10.850;2023-05-10T09:11:18;24.30;53.10
44863;DHT22;30597;49.628;10.850;2023-05-10T09:13:47;24.30;53.20
44863;DHT22;30597;49.628;10.850;2023-05-10T09:16:13;24.40;53.20
44863;DHT22;30597;49.628;10.850;2023-05-10T09:18:38;24.30;53.00
44863;DHT22;30597;49.628;10.850;2023-05-10T09:21:04;24.30;53.10
44863;DHT22;30597;49.628;10.850;2023-05-10T09:23:29;24.40;52.90
44863;DHT22;30597;49.628;10.850;2023-05-10T09:26:07;24.30;52.60
44863;DHT22;30597;49.628;10.850;2023-05-10T09:28:33;24.30;52.70
44863;DHT22;30597;49.628;10.850;2023-05-10T09:30:59;24.30;52.80
44863;DHT22;30597;49.628;10.850;2023-05-10T09:33:25;24.30;53.30
44863;DHT22;30597;49.628;10.850;2023-05-10T09:35:51;24.30;52.40
44863;DHT22;30597;49.628;10.850;2023-05-10T09:38:17;24.30;52.40
44863;DHT22;30597;49.628;10.850;2023-05-10T09:40:51;24.30;52.50
44863;DHT22;30597;49.628;10.850;2023-05-10T09:43:20;24.30;52.60
44863;DHT22;30597;49.628;10.850;2023-05-10T09:45:48;24.30;52.60
44863;DHT22;30597;49.628;10.850;2023-05-10T09:48:15;24.50;52.80
44863;DHT22;30597;49.628;10.850;2023-05-10T09:50:41;24.40;52.70
44863;DHT22;30597;49.628;10.850;2023-05-10T09:53:07;24.40;52.60
44863;DHT22;30597;49.628;10.850;2023-05-10T09:58:01;24.40;53.10
44863;DHT22;30597;49.628;10.850;2023-05-10T10:00:28;24.50;52.90
44863;DHT22;30597;49.628;10.850;2023-05-10T10:02:58;24.50;53.20
44863;DHT22;30597;49.628;10.850;2023-05-10T10:05:35;24.50;52.30
44863;DHT22;30597;49.628;10.850;2023-05-10T10:08:03;24.40;52.40
44863;DHT22;30597;49.628;10.850;2023-05-10T10:10:31;24.50;52.30
44863;DHT22;30597;49.628;10.850;2023-05-10T10:12:57;24.50;52.60
44863;DHT22;30597;49.628;10.850;2023-05-10T10:15:23;24.40;52.50
44863;DHT22;30597;49.628;10.850;2023-05-10T10:17:49;24.40;52.50
44863;DHT22;30597;49.628;10.850;2023-05-10T10:20:16;24.40;52.20
44863;DHT22;30597;49.628;10.850;2023-05-10T10:22:42;24.50;51.80
44863;DHT22;30597;49.628;10.850;2023-05-10T10:25:17;24.50;51.80
44863;DHT22;30597;49.628;10.850;2023-05-10T10:35:32;24.50;51.90
44863;DHT22;30597;49.628;10.850;2023-05-10T10:37:58;24.50;51.70
44863;DHT22;30597;49.628;10.850;2023-05-10T10:40:31;24.50;52.00
44863;DHT22;30597;49.628;10.850;2023-05-10T10:42:57;24.50;52.30
44863;DHT22;30597;49.628;10.850;2023-05-10T10:45:26;24.60;52.00
44863;DHT22;30597;49.628;10.850;2023-05-10T10:48:20;24.60;51.80
44863;DHT22;30597;49.628;10.850;2023-05-10T10:50:46;24.60;52.40
44863;DHT22;30597;49.628;10.850;2023-05-10T10:53:12;24.60;52.40
44863;DHT22;30597;49.628;10.850;2023-05-10T10:55:48;24.50;52.50
44863;DHT22;30597;49.628;10.850;2023-05-10T10:58:30;24.50;52.70
44863;DHT22;30597;49.628;10.850;2023-05-10T11:01:18;24.50;52.80
44863;DHT22;30597;49.628;10.850;2023-05-10T11:06:35;24.50;53.00
44863;DHT22;30597;49.628;10.850;2023-05-10T11:09:07;24.50;53.10
44863;DHT22;30597;49.628;10.850;2023-05-10T11:11:34;24.50;53.00
44863;DHT22;30597;49.628;10.850;2023-05-10T11:14:07;24.50;53.20
44863;DHT22;30597;49.628;10.850;2023-05-10T11:16:44;24.40;53.00
44863;DHT22;30597;49.628;10.850;2023-05-10T11:19:11;24.40;53.10
44863;DHT22;30597;49.628;10.850;2023-05-10T11:21:49;24.50;53.30
44863;DHT22;30597;49.628;10.850;2023-05-10T11:24:17;24.50;53.40
44863;DHT22;30597;49.628;10.850;2023-05-10T11:26:43;24.50;53.30
44863;DHT22;30597;49.628;10.850;2023-05-10T11:29:09;24.50;53.10
44863;DHT22;30597;49.628;10.850;2023-05-10T11:31:35;24.50;53.10
44863;DHT22;30597;49.628;10.850;2023-05-10T11:34:06;24.40;53.10
44863;DHT22;30597;49.628;10.850;2023-05-10T11:36:34;24.50;53.00
44863;DHT22;30597;49.628;10.850;2023-05-10T11:39:00;24.50;53.00
44863;DHT22;30597;49.628;10.850;2023-05-10T11:41:28;24.40;52.60
44863;DHT22;30597;49.628;10.850;2023-05-10T11:43:55;24.40;52.80
44863;DHT22;30597;49.628;10.850;2023-05-10T11:46:23;24.40;52.80
44863;DHT22;30597;49.628;10.850;2023-05-10T11:48:51;24.50;52.90
44863;DHT22;30597;49.628;10.850;2023-05-10T11:51:23;24.40;52.80
44863;DHT22;30597;49.628;10.850;2023-05-10T11:53:53;24.50;53.00
44863;DHT22;30597;49.628;10.850;2023-05-10T11:56:19;24.50;52.90
44863;DHT22;30597;49.628;10.850;2023-05-10T11:58:54;24.50;52.90
44863;DHT22;30597;49.628;10.850;2023-05-10T12:01:21;24.50;52.90
44863;DHT22;30597;49.628;10.850;2023-05-10T12:03:48;24.60;52.90
44863;DHT22;30597;49.628;10.850;2023-05-10T12:06:14;24.60;52.90
44863;DHT22;30597;49.628;10.850;2023-05-10T12:08:45;24.60;52.80
44863;DHT22;30597;49.628;10.850;2023-05-10T12:11:12;24.70;53.10
44863;DHT22;30597;49.628;10.850;2023-05-10T12:13:43;24.70;53.10
44863;DHT22;30597;49.628;10.850;2023-05-10T12:16:22;24.80;53.00
44863;DHT22;30597;49.628;10.850;2023-05-10T12:18:49;24.70;52.90
44863;DHT22;30597;49.628;10.850;2023-05-10T12:21:16;24.70;52.90
44863;DHT22;30597;49.628;10.850;2023-05-10T12:23:42;24.70;52.90
44863;DHT22;30597;49.628;10.850;2023-05-10T12:26:10;24.70;53.10
44863;DHT22;30597;49.628;10.850;2023-05-10T12:28:37;24.80;53.20
44863;DHT22;30597;49.628;10.850;2023-05-10T12:31:03;24.70;53.10
44863;DHT22;30597;49.628;10.850;2023-05-10T12:33:39;24.70;53.10
44863;DHT22;30597;49.628;10.850;2023-05-10T12:36:08;24.70;53.30
44863;DHT22;30597;49.628;10.850;2023-05-10T12:38:41;24.70;53.40
44863;DHT22;30597;49.628;10.850;2023-05-10T12:41:10;24.70;53.40
44863;DHT22;30597;49.628;10.850;2023-05-10T12:43:37;24.70;53.40
44863;DHT22;30597;49.628;10.850;2023-05-10T12:46:10;24.70;53.30
44863;DHT22;30597;49.628;10.850;2023-05-10T12:48:37;24.70;53.40
44863;DHT22;30597;49.628;10.850;2023-05-10T12:51:04;24.60;53.40
44863;DHT22;30597;49.628;10.850;2023-05-10T12:53:30;24.70;53.50
44863;DHT22;30597;49.628;10.850;2023-05-10T12:55:56;24.70;53.40
44863;DHT22;30597;49.628;10.850;2023-05-10T12:58:22;24.70;53.50
44863;DHT22;30597;49.628;10.850;2023-05-10T13:00:48;24.70;53.40
44863;DHT22;30597;49.628;10.850;2023-05-10T13:03:13;24.70;53.30
44863;DHT22;30597;49.628;10.850;2023-05-10T13:05:40;24.70;53.30
44863;DHT22;30597;49.628;10.850;2023-05-10T13:08:06;24.70;53.40
44863;DHT22;30597;49.628;10.850;2023-05-10T13:10:32;24.70;53.40
44863;DHT22;30597;49.628;10.850;2023-05-10T13:12:58;24.70;53.40
44863;DHT22;30597;49.628;10.850;2023-05-10T13:15:24;24.80;53.30
44863;DHT22;30597;49.628;10.850;2023-05-10T13:17:50;24.80;53.40
44863;DHT22;30597;49.628;10.850;2023-05-10T13:20:15;24.80;53.20
44863;DHT22;30597;49.628;10.850;2023-05-10T13:22:42;24.80;53.20
44863;DHT22;30597;49.628;10.850;2023-05-10T13:25:08;24.80;53.30
44863;DHT22;30597;49.628;10.850;2023-05-10T13:27:34;24.80;53.20
44863;DHT22;30597;49.628;10.850;2023-05-10T13:29:59;24.90;52.90
44863;DHT22;30597;49.628;10.850;2023-05-10T13:32:25;24.80;53.00
44863;DHT22;30597;49.628;10.850;2023-05-10T13:34:51;24.80;53.00
44863;DHT22;30597;49.628;10.850;2023-05-10T13:37:17;24.80;53.00
44863;DHT22;30597;49.628;10.850;2023-05-10T13:39:43;24.80;53.00
44863;DHT22;30597;49.628;10.850;2023-05-10T13:42:08;24.70;53.20
44863;DHT22;30597;49.628;10.850;2023-05-10T13:44:34;24.70;53.10
44863;DHT22;30597;49.628;10.850;2023-05-10T13:46:59;24.80;53.20
44863;DHT22;30597;49.628;10.850;2023-05-10T13:49:25;24.90;53.40
44863;DHT22;30597;49.628;10.850;2023-05-10T13:51:51;24.70;53.20
44863;DHT22;30597;49.628;10.850;2023-05-10T13:54:17;24.90;53.50
44863;DHT22;30597;49.628;10.850;2023-05-10T13:56:45;24.80;53.40
44863;DHT22;30597;49.628;10.850;2023-05-10T13:59:12;24.80;53.40
44863;DHT22;30597;49.628;10.850;2023-05-10T14:01:38;24.80;53.30
44863;DHT22;30597;49.628;10.850;2023-05-10T14:04:03;24.80;53.30
44863;DHT22;30597;49.628;10.850;2023-05-10T14:06:29;24.80;53.30
44863;DHT22;30597;49.628;10.850;2023-05-10T14:08:54;24.80;53.30
44863;DHT22;30597;49.628;10.850;2023-05-10T14:11:20;24.80;53.40
44863;DHT22;30597;49.628;10.850;2023-05-10T14:13:46;24.80;53.40
44863;DHT22;30597;49.628;10.850;2023-05-10T14:16:11;24.80;53.50
44863;DHT22;30597;49.628;10.850;2023-05-10T14:18:37;24.80;53.60
44863;DHT22;30597;49.628;10.850;2023-05-10T14:21:03;24.90;53.50
44863;DHT22;30597;49.628;10.850;2023-05-10T14:23:28;24.90;53.50
44863;DHT22;30597;49.628;10.850;2023-05-10T14:25:54;24.90;53.60
44863;DHT22;30597;49.628;10.850;2023-05-10T14:28:20;24.80;53.40
44863;DHT22;30597;49.628;10.850;2023-05-10T14:30:46;24.80;53.50
44863;DHT22;30597;49.628;10.850;2023-05-10T14:33:12;24.80;53.60
44863;DHT22;30597;49.628;10.850;2023-05-10T14:35:38;24.80;53.60
44863;DHT22;30597;49.628;10.850;2023-05-10T14:38:04;24.80;53.60
44863;DHT22;30597;49.628;10.850;2023-05-10T14:40:30;24.80;53.70
44863;DHT22;30597;49.628;10.850;2023-05-10T14:42:55;24.70;53.70
44863;DHT22;30597;49.628;10.850;2023-05-10T14:45:22;24.70;53.60
44863;DHT22;30597;49.628;10.850;2023-05-10T14:47:48;24.70;53.90
44863;DHT22;30597;49.628;10.850;2023-05-10T14:50:14;24.60;53.90
44863;DHT22;30597;49.628;10.850;2023-05-10T14:52:39;24.60;53.90
44863;DHT22;30597;49.628;10.850;2023-05-10T14:55:05;24.60;53.90
44863;DHT22;30597;49.628;10.850;2023-05-10T14:57:31;24.60;53.90
44863;DHT22;30597;49.628;10.850;2023-05-10T14:59:57;24.60;53.90
44863;DHT22;30597;49.628;10.850;2023-05-10T15:02:23;24.60;53.90
44863;DHT22;30597;49.628;10.850;2023-05-10T15:04:49;24.60;54.00
44863;DHT22;30597;49.628;10.850;2023-05-10T15:07:15;24.50;54.10
44863;DHT22;30597;49.628;10.850;2023-05-10T15:09:42;24.60;54.20
44863;DHT22;30597;49.628;10.850;2023-05-10T15:12:08;24.70;54.20
44863;DHT22;30597;49.628;10.850;2023-05-10T15:14:33;24.50;54.10
44863;DHT22;30597;49.628;10.850;2023-05-10T15:17:00;24.50;54.20
44863;DHT22;30597;49.628;10.850;2023-05-10T15:19:26;24.50;54.20
44863;DHT22;30597;49.628;10.850;2023-05-10T15:21:51;24.60;54.30
44863;DHT22;30597;49.628;10.850;2023-05-10T15:24:17;24.50;54.20
44863;DHT22;30597;49.628;10.850;2023-05-10T15:26:42;24.50;54.20
44863;DHT22;30597;49.628;10.850;2023-05-10T15:29:08;24.50;54.40
44863;DHT22;30597;49.628;10.850;2023-05-10T15:31:34;24.50;54.30
44863;DHT22;30597;49.628;10.850;2023-05-10T15:34:01;24.50;54.40
44863;DHT22;30597;49.628;10.850;2023-05-10T15:36:26;24.50;54.40
44863;DHT22;30597;49.628;10.850;2023-05-10T15:38:53;24.50;54.40